createdAt,value
2019-02-05T00:00:40.609Z,0
2019-02-05T00:01:41.788Z,0
2019-02-05T00:02:40.637Z,0
2019-02-05T00:03:55.292Z,0
2019-02-05T00:04:55.423Z,0
2019-02-05T00:05:40.675Z,0
2019-02-05T00:06:40.686Z,0
2019-02-05T00:07:40.692Z,0
2019-02-05T00:08:40.714Z,0
2019-02-05T00:10:40.733Z,0
2019-02-05T00:11:40.732Z,0
2019-02-05T00:12:40.766Z,0
2019-02-05T00:13:40.812Z,0
2019-02-05T00:14:40.770Z,0
2019-02-05T00:15:40.792Z,0
2019-02-05T00:16:40.980Z,0
2019-02-05T00:17:41.351Z,0
2019-02-05T00:18:40.818Z,0
2019-02-05T00:19:40.836Z,0
2019-02-05T00:20:55.501Z,0
2019-02-05T00:21:40.863Z,0
2019-02-05T00:22:55.522Z,0
2019-02-05T00:23:40.874Z,0
2019-02-05T00:24:41.146Z,0
2019-02-05T00:25:41.355Z,0
2019-02-05T00:26:55.582Z,0
2019-02-05T00:27:40.932Z,0
2019-02-05T00:28:55.594Z,0
2019-02-05T00:29:40.961Z,0
2019-02-05T00:30:40.965Z,0
2019-02-05T00:31:40.983Z,0
2019-02-05T00:32:41.626Z,0
2019-02-05T00:33:41.101Z,0
2019-02-05T00:34:41.002Z,0
2019-02-05T00:35:41.034Z,0
2019-02-05T00:36:55.692Z,0
2019-02-05T00:37:41.047Z,0
2019-02-05T00:38:41.063Z,0
2019-02-05T00:39:41.072Z,0
2019-02-05T00:40:41.910Z,0
2019-02-05T00:41:55.755Z,0
2019-02-05T00:42:41.098Z,0
2019-02-05T00:43:41.124Z,0
2019-02-05T00:44:41.129Z,0
2019-02-05T00:45:41.144Z,0
2019-02-05T00:46:41.158Z,0
2019-02-05T00:47:41.165Z,0
2019-02-05T00:49:41.192Z,0
2019-02-05T00:50:41.215Z,0
2019-02-05T00:51:55.874Z,0
2019-02-05T00:52:41.226Z,0
2019-02-05T00:53:41.233Z,0
2019-02-05T00:54:41.257Z,0
2019-02-05T00:55:56.167Z,0
2019-02-05T00:56:41.498Z,0
2019-02-05T00:57:41.292Z,0
2019-02-05T00:58:41.299Z,0
2019-02-05T00:59:41.303Z,0
2019-02-05T01:00:41.317Z,0
2019-02-05T01:01:41.340Z,0
2019-02-05T01:02:41.343Z,0
2019-02-05T01:03:41.599Z,0
2019-02-05T01:04:41.699Z,0
2019-02-05T01:05:41.383Z,0
2019-02-05T01:06:41.389Z,0
2019-02-05T01:07:41.398Z,0
2019-02-05T01:08:41.541Z,0
2019-02-05T01:09:41.422Z,0
2019-02-05T01:10:41.576Z,0
2019-02-05T01:11:42.544Z,0
2019-02-05T01:12:41.457Z,0
2019-02-05T01:13:56.469Z,0
2019-02-05T01:15:41.502Z,0
2019-02-05T01:16:41.519Z,0
2019-02-05T01:17:41.521Z,0
2019-02-05T01:18:41.527Z,0
2019-02-05T01:20:41.555Z,0
2019-02-05T01:21:41.570Z,0
2019-02-05T01:22:41.579Z,0
2019-02-05T01:23:56.258Z,0
2019-02-05T01:24:41.614Z,0
2019-02-05T01:25:41.613Z,0
2019-02-05T01:26:41.632Z,0
2019-02-05T01:27:42.534Z,0
2019-02-05T01:28:41.660Z,0
2019-02-05T01:29:56.716Z,0
2019-02-05T01:30:41.682Z,0
2019-02-05T01:31:41.683Z,0
2019-02-05T01:32:56.360Z,0
2019-02-05T01:33:41.711Z,0
2019-02-05T01:34:41.725Z,0
2019-02-05T01:35:42.385Z,0
2019-02-05T01:36:41.753Z,0
2019-02-05T01:37:43.337Z,0
2019-02-05T01:38:41.774Z,0
2019-02-05T01:39:56.438Z,0
2019-02-05T01:40:41.802Z,0
2019-02-05T01:41:41.806Z,0
2019-02-05T01:42:42.009Z,0
2019-02-05T01:43:42.021Z,0
2019-02-05T01:44:41.844Z,0
2019-02-05T01:45:41.850Z,0
2019-02-05T01:46:41.877Z,0
2019-02-05T01:47:56.542Z,0
2019-02-05T01:48:41.888Z,0
2019-02-05T01:49:41.912Z,0
2019-02-05T01:50:42.583Z,0
2019-02-05T01:51:41.973Z,0
2019-02-05T01:52:41.937Z,0
2019-02-05T01:53:41.947Z,0
2019-02-05T01:54:41.957Z,0
2019-02-05T01:55:56.624Z,0
2019-02-05T01:56:48.083Z,0
2019-02-05T01:57:41.996Z,0
2019-02-05T01:58:58.228Z,0
2019-02-05T01:59:42.021Z,0
2019-02-05T02:02:42.062Z,0
2019-02-05T02:03:42.112Z,0
2019-02-05T02:04:42.080Z,0
2019-02-05T02:05:42.107Z,0
2019-02-05T02:06:42.695Z,0
2019-02-05T02:07:56.776Z,0
2019-02-05T02:08:42.136Z,0
2019-02-05T02:09:42.136Z,0
2019-02-05T02:10:42.147Z,0
2019-02-05T02:11:56.831Z,0
2019-02-05T02:12:42.285Z,0
2019-02-05T02:13:42.287Z,0
2019-02-05T02:14:42.483Z,0
2019-02-05T02:15:42.211Z,0
2019-02-05T02:16:42.238Z,0
2019-02-05T02:17:42.230Z,0
2019-02-05T02:18:42.251Z,0
2019-02-05T02:19:42.261Z,0
2019-02-05T02:20:42.371Z,0
2019-02-05T02:21:57.207Z,0
2019-02-05T02:22:42.290Z,0
2019-02-05T02:23:42.312Z,0
2019-02-05T02:24:42.325Z,0
2019-02-05T02:25:42.342Z,0
2019-02-05T02:26:57.299Z,0
2019-02-05T02:27:42.434Z,0
2019-02-05T02:28:42.385Z,0
2019-02-05T02:29:43.148Z,0
2019-02-05T02:30:42.419Z,0
2019-02-05T02:31:42.412Z,0
2019-02-05T02:32:42.431Z,0
2019-02-05T02:33:41.935Z,0
2019-02-05T02:34:42.441Z,0
2019-02-05T02:35:42.462Z,0
2019-02-05T02:36:42.625Z,0
2019-02-05T02:37:42.840Z,0
2019-02-05T02:38:42.493Z,0
2019-02-05T02:39:42.511Z,0
2019-02-05T02:40:42.517Z,0
2019-02-05T02:41:42.523Z,0
2019-02-05T02:43:57.228Z,0
2019-02-05T02:44:43.092Z,0
2019-02-05T02:45:42.650Z,0
2019-02-05T02:46:42.593Z,0
2019-02-05T02:47:42.605Z,0
2019-02-05T02:48:42.625Z,0
2019-02-05T02:49:57.285Z,0
2019-02-05T02:50:42.642Z,0
2019-02-05T02:51:42.653Z,0
2019-02-05T02:52:43.282Z,0
2019-02-05T02:53:42.693Z,0
2019-02-05T02:54:42.699Z,0
2019-02-05T02:55:42.708Z,0
2019-02-05T02:56:42.718Z,0
2019-02-05T02:57:42.753Z,0
2019-02-05T02:58:57.407Z,0
2019-02-05T02:59:42.762Z,0
2019-02-05T03:00:43.499Z,0
2019-02-05T03:01:42.807Z,0
2019-02-05T03:02:57.441Z,0
2019-02-05T03:03:42.819Z,0
2019-02-05T03:05:44.320Z,0
2019-02-05T03:06:42.842Z,0
2019-02-05T03:07:43.507Z,0
2019-02-05T03:08:42.864Z,0
2019-02-05T03:09:42.874Z,0
2019-02-05T03:10:42.902Z,0
2019-02-05T03:11:42.893Z,0
2019-02-05T03:12:57.570Z,0
2019-02-05T03:13:42.925Z,0
2019-02-05T03:14:57.598Z,0
2019-02-05T03:15:43.274Z,0
2019-02-05T03:16:42.990Z,0
2019-02-05T03:17:43.005Z,0
2019-02-05T03:18:43.013Z,0
2019-02-05T03:19:42.997Z,0
2019-02-05T03:20:43.037Z,0
2019-02-05T03:21:43.295Z,0
2019-02-05T03:22:57.706Z,0
2019-02-05T03:23:43.069Z,0
2019-02-05T03:24:43.169Z,0
2019-02-05T03:25:43.182Z,0
2019-02-05T03:26:43.226Z,0
2019-02-05T03:27:43.108Z,0
2019-02-05T03:28:43.243Z,0
2019-02-05T03:29:43.507Z,0
2019-02-05T03:31:12.864Z,0
2019-02-05T03:31:43.208Z,0
2019-02-05T03:32:43.196Z,0
2019-02-05T03:33:43.173Z,0
2019-02-05T03:34:43.189Z,0
2019-02-05T03:35:43.198Z,0
2019-02-05T03:36:44.139Z,0
2019-02-05T03:37:43.227Z,0
2019-02-05T03:38:57.880Z,0
2019-02-05T03:39:43.246Z,0
2019-02-05T03:40:57.929Z,0
2019-02-05T03:41:43.274Z,0
2019-02-05T03:42:43.294Z,0
2019-02-05T03:43:43.945Z,0
2019-02-05T03:44:43.300Z,0
2019-02-05T03:45:43.312Z,0
2019-02-05T03:46:57.980Z,0
2019-02-05T03:47:43.463Z,0
2019-02-05T03:48:43.361Z,0
2019-02-05T03:49:43.382Z,0
2019-02-05T03:50:43.774Z,0
2019-02-05T03:51:43.687Z,0
2019-02-05T03:52:58.174Z,0
2019-02-05T03:53:43.424Z,0
2019-02-05T03:55:43.449Z,0
2019-02-05T03:56:43.459Z,0
2019-02-05T03:57:43.468Z,0
2019-02-05T03:58:58.804Z,0
2019-02-05T03:59:58.144Z,0
2019-02-05T04:00:58.155Z,0
2019-02-05T04:01:58.157Z,0
2019-02-05T04:02:43.585Z,0
2019-02-05T04:03:43.540Z,0
2019-02-05T04:04:58.216Z,0
2019-02-05T04:05:43.569Z,0
2019-02-05T04:06:44.318Z,0
2019-02-05T04:08:43.592Z,0
2019-02-05T04:09:43.631Z,0
2019-02-05T04:10:43.606Z,0
2019-02-05T04:11:43.628Z,0
2019-02-05T04:12:43.662Z,0
2019-02-05T04:13:58.467Z,0
2019-02-05T04:14:44.054Z,0
2019-02-05T04:15:43.680Z,0
2019-02-05T04:16:43.698Z,0
2019-02-05T04:17:43.716Z,0
2019-02-05T04:18:43.723Z,0
2019-02-05T04:19:43.751Z,0
2019-02-05T04:20:43.751Z,0
2019-02-05T04:21:44.200Z,0
2019-02-05T04:22:43.773Z,0
2019-02-05T04:23:58.558Z,0
2019-02-05T04:24:43.820Z,0
2019-02-05T04:25:43.826Z,0
2019-02-05T04:26:43.822Z,0
2019-02-05T04:27:52.468Z,0
2019-02-05T04:28:43.882Z,0
2019-02-05T04:29:44.645Z,0
2019-02-05T04:30:43.865Z,0
2019-02-05T04:31:43.896Z,0
2019-02-05T04:32:43.885Z,0
2019-02-05T04:33:58.569Z,0
2019-02-05T04:34:58.571Z,0
2019-02-05T04:35:43.927Z,0
2019-02-05T04:36:44.011Z,0
2019-02-05T04:37:58.597Z,0
2019-02-05T04:38:43.968Z,0
2019-02-05T04:39:58.627Z,0
2019-02-05T04:40:43.986Z,0
2019-02-05T04:41:58.666Z,0
2019-02-05T04:42:44.024Z,0
2019-02-05T04:43:44.039Z,0
2019-02-05T04:44:44.425Z,0
2019-02-05T04:45:44.126Z,0
2019-02-05T04:46:44.053Z,0
2019-02-05T04:47:44.078Z,0
2019-02-05T04:48:46.167Z,0
2019-02-05T04:49:58.765Z,0
2019-02-05T04:50:58.770Z,0
2019-02-05T04:51:44.126Z,0
2019-02-05T04:52:45.066Z,0
2019-02-05T04:53:44.151Z,0
2019-02-05T04:54:44.170Z,0
2019-02-05T04:55:44.188Z,0
2019-02-05T04:56:44.218Z,0
2019-02-05T04:57:56.600Z,0
2019-02-05T04:58:44.224Z,0
2019-02-05T04:59:44.476Z,0
2019-02-05T05:00:44.548Z,0
2019-02-05T05:01:44.243Z,0
2019-02-05T05:02:44.284Z,0
2019-02-05T05:03:58.930Z,0
2019-02-05T05:04:44.284Z,0
2019-02-05T05:06:13.595Z,0
2019-02-05T05:07:59.204Z,0
2019-02-05T05:08:59.083Z,0
2019-02-05T05:09:44.346Z,0
2019-02-05T05:10:44.357Z,0
2019-02-05T05:11:46.001Z,0
2019-02-05T05:12:44.152Z,0
2019-02-05T05:13:44.408Z,0
2019-02-05T05:14:59.053Z,0
2019-02-05T05:15:59.385Z,0
2019-02-05T05:16:44.349Z,0
2019-02-05T05:17:44.462Z,0
2019-02-05T05:18:44.464Z,0
2019-02-05T05:19:44.476Z,0
2019-02-05T05:20:44.490Z,0
2019-02-05T05:21:59.156Z,0
2019-02-05T05:22:44.863Z,0
2019-02-05T05:23:47.791Z,0
2019-02-05T05:24:44.532Z,0
2019-02-05T05:25:44.547Z,0
2019-02-05T05:26:44.566Z,0
2019-02-05T05:27:44.328Z,0
2019-02-05T05:28:44.587Z,0
2019-02-05T05:29:44.910Z,0
2019-02-05T05:30:59.361Z,0
2019-02-05T05:31:44.644Z,0
2019-02-05T05:32:44.620Z,0
2019-02-05T05:33:44.653Z,0
2019-02-05T05:34:44.665Z,0
2019-02-05T05:35:51.218Z,0
2019-02-05T05:37:13.975Z,0
2019-02-05T05:38:44.693Z,0
2019-02-05T05:39:44.735Z,0
2019-02-05T05:40:59.372Z,0
2019-02-05T05:41:59.390Z,0
2019-02-05T05:43:44.819Z,0
2019-02-05T05:44:45.107Z,0
2019-02-05T05:45:45.461Z,0
2019-02-05T05:46:44.804Z,0
2019-02-05T05:47:44.843Z,0
2019-02-05T05:48:44.835Z,0
2019-02-05T05:49:44.941Z,0
2019-02-05T05:50:44.883Z,0
2019-02-05T05:51:44.873Z,0
2019-02-05T05:52:45.461Z,0
2019-02-05T05:54:44.890Z,0
2019-02-05T05:55:44.994Z,0
2019-02-05T05:56:44.919Z,0
2019-02-05T05:57:59.582Z,0
2019-02-05T05:58:44.953Z,0
2019-02-05T05:59:45.333Z,0
2019-02-05T06:00:45.394Z,0
2019-02-05T06:01:44.980Z,0
2019-02-05T06:03:01.815Z,0
2019-02-05T06:03:45.019Z,0
2019-02-05T06:04:45.024Z,0
2019-02-05T06:05:59.688Z,0
2019-02-05T06:06:45.057Z,0
2019-02-05T06:07:45.841Z,0
2019-02-05T06:08:59.817Z,0
2019-02-05T06:09:45.216Z,0
2019-02-05T06:10:45.113Z,0
2019-02-05T06:11:45.107Z,0
2019-02-05T06:12:59.864Z,0
2019-02-05T06:13:45.115Z,0
2019-02-05T06:14:45.570Z,0
2019-02-05T06:15:45.153Z,4
2019-02-05T06:17:45.198Z,4
2019-02-05T06:19:59.860Z,4
2019-02-05T06:21:45.250Z,4
2019-02-05T06:22:45.798Z,4
2019-02-05T06:23:45.258Z,4
2019-02-05T06:25:00.088Z,8
2019-02-05T06:25:45.276Z,4
2019-02-05T06:26:45.282Z,8
2019-02-05T06:28:45.315Z,12
2019-02-05T06:29:45.706Z,12
2019-02-05T06:31:00.088Z,12
2019-02-05T06:32:00.216Z,12
2019-02-05T06:32:45.355Z,16
2019-02-05T06:34:00.018Z,16
2019-02-05T06:35:00.049Z,20
2019-02-05T06:35:45.411Z,20
2019-02-05T06:36:45.413Z,24
2019-02-05T06:37:46.062Z,28
2019-02-05T06:38:47.304Z,28
2019-02-05T06:39:45.441Z,32
2019-02-05T06:40:59.997Z,36
2019-02-05T06:41:45.570Z,40
2019-02-05T06:42:45.490Z,44
2019-02-05T06:44:45.725Z,56
2019-02-05T06:45:49.049Z,60
2019-02-05T06:46:45.289Z,68
2019-02-05T06:47:45.571Z,76
2019-02-05T06:48:45.551Z,84
2019-02-05T06:49:45.571Z,92
2019-02-05T06:50:45.580Z,96
2019-02-05T06:52:00.235Z,100
2019-02-05T06:53:00.260Z,108
2019-02-05T06:53:45.620Z,112
2019-02-05T06:54:45.633Z,124
2019-02-05T06:55:45.634Z,140
2019-02-05T06:57:00.303Z,148
2019-02-05T06:57:45.674Z,152
2019-02-05T06:58:53.749Z,156
2019-02-05T06:59:46.173Z,160
2019-02-05T07:00:45.694Z,172
2019-02-05T07:01:45.842Z,184
2019-02-05T07:02:45.726Z,196
2019-02-05T07:03:45.736Z,216
2019-02-05T07:04:45.758Z,236
2019-02-05T07:06:00.425Z,264
2019-02-05T07:08:47.558Z,308
2019-02-05T07:09:45.805Z,304
2019-02-05T07:10:45.838Z,300
2019-02-05T07:12:00.527Z,304
2019-02-05T07:12:45.866Z,308
2019-02-05T07:13:45.869Z,320
2019-02-05T07:14:46.530Z,320
2019-02-05T07:15:45.890Z,332
2019-02-05T07:16:45.906Z,364
2019-02-05T07:17:56.797Z,420
2019-02-05T07:18:45.911Z,452
2019-02-05T07:19:45.956Z,512
2019-02-05T07:20:45.953Z,564
2019-02-05T07:21:45.985Z,620
2019-02-05T07:22:46.670Z,664
2019-02-05T07:24:46.010Z,592
2019-02-05T07:26:45.766Z,552
2019-02-05T07:27:46.040Z,532
2019-02-05T07:28:57.636Z,572
2019-02-05T07:30:01.120Z,572
2019-02-05T07:31:00.723Z,612
2019-02-05T07:31:46.072Z,644
2019-02-05T07:32:46.119Z,656
2019-02-05T07:33:46.142Z,680
2019-02-05T07:34:46.193Z,704
2019-02-05T07:35:46.150Z,756
2019-02-05T07:36:46.639Z,792
2019-02-05T07:38:00.858Z,796
2019-02-05T07:38:46.253Z,800
2019-02-05T07:39:46.208Z,832
2019-02-05T07:40:46.238Z,880
2019-02-05T07:41:46.260Z,884
2019-02-05T07:42:46.258Z,888
2019-02-05T07:44:00.905Z,928
2019-02-05T07:44:47.346Z,952
2019-02-05T07:45:46.271Z,964
2019-02-05T07:47:00.938Z,936
2019-02-05T07:47:46.325Z,960
2019-02-05T07:48:46.333Z,940
2019-02-05T07:49:46.308Z,988
2019-02-05T07:51:46.675Z,1024
2019-02-05T07:53:01.006Z,1068
2019-02-05T07:53:46.500Z,1128
2019-02-05T07:54:46.511Z,1216
2019-02-05T07:55:46.416Z,1272
2019-02-05T07:56:46.498Z,1216
2019-02-05T07:57:46.488Z,1156
2019-02-05T07:58:47.169Z,1100
2019-02-05T08:00:15.955Z,1096
2019-02-05T08:01:46.515Z,1140
2019-02-05T08:03:01.160Z,1168
2019-02-05T08:03:46.510Z,1168
2019-02-05T08:04:46.531Z,1132
2019-02-05T08:05:47.170Z,1100
2019-02-05T08:07:01.183Z,1192
2019-02-05T08:07:46.543Z,1260
2019-02-05T08:09:01.225Z,1272
2019-02-05T08:09:46.582Z,1200
2019-02-05T08:10:46.572Z,1168
2019-02-05T08:11:48.650Z,1136
2019-02-05T08:12:47.454Z,1232
2019-02-05T08:13:46.684Z,1300
2019-02-05T08:14:46.668Z,1316
2019-02-05T08:16:01.297Z,1212
2019-02-05T08:16:47.893Z,1148
2019-02-05T08:17:46.685Z,1220
2019-02-05T08:18:46.888Z,1372
2019-02-05T08:19:47.350Z,1448
2019-02-05T08:20:46.710Z,1404
2019-02-05T08:21:46.711Z,1428
2019-02-05T08:22:46.778Z,1404
2019-02-05T08:24:01.430Z,1476
2019-02-05T08:24:46.769Z,1532
2019-02-05T08:25:46.791Z,1784
2019-02-05T08:27:01.845Z,1896
2019-02-05T08:27:46.803Z,2040
2019-02-05T08:28:48.351Z,2312
2019-02-05T08:29:46.821Z,2104
2019-02-05T08:30:46.871Z,2128
2019-02-05T08:32:01.536Z,2152
2019-02-05T08:32:46.884Z,1940
2019-02-05T08:33:47.124Z,2072
2019-02-05T08:34:47.269Z,2536
2019-02-05T08:36:46.691Z,2336
2019-02-05T08:38:01.580Z,1976
2019-02-05T08:39:01.590Z,2212
2019-02-05T08:39:46.974Z,2412
2019-02-05T08:40:46.992Z,2256
2019-02-05T08:41:47.728Z,1720
2019-02-05T08:43:01.643Z,1768
2019-02-05T08:43:47.021Z,1812
2019-02-05T08:44:47.024Z,1668
2019-02-05T08:45:58.598Z,1364
2019-02-05T08:47:01.694Z,1144
2019-02-05T08:48:01.700Z,1056
2019-02-05T08:49:02.387Z,1024
2019-02-05T08:49:47.108Z,984
2019-02-05T08:50:47.099Z,1056
2019-02-05T08:51:47.133Z,1112
2019-02-05T08:52:47.145Z,1120
2019-02-05T08:53:47.125Z,1132
2019-02-05T08:54:47.156Z,1132
2019-02-05T08:55:47.803Z,1184
2019-02-05T08:56:47.193Z,1240
2019-02-05T08:57:47.181Z,1084
2019-02-05T08:58:47.193Z,944
2019-02-05T08:59:47.213Z,916
2019-02-05T09:01:01.900Z,876
2019-02-05T09:01:47.305Z,944
2019-02-05T09:02:47.456Z,1196
2019-02-05T09:03:47.636Z,1352
2019-02-05T09:05:02.076Z,1256
2019-02-05T09:05:47.064Z,1264
2019-02-05T09:06:47.300Z,1392
2019-02-05T09:07:47.351Z,1724
2019-02-05T09:08:47.324Z,1788
2019-02-05T09:09:47.349Z,1696
2019-02-05T09:11:47.366Z,1872
2019-02-05T09:13:47.171Z,1672
2019-02-05T09:14:47.409Z,1544
2019-02-05T09:15:47.431Z,1504
2019-02-05T09:16:47.427Z,1424
2019-02-05T09:17:48.001Z,1332
2019-02-05T09:19:02.127Z,1216
2019-02-05T09:19:47.580Z,1196
2019-02-05T09:20:47.500Z,1248
2019-02-05T09:22:02.157Z,1320
2019-02-05T09:23:47.527Z,1136
2019-02-05T09:24:47.542Z,1044
2019-02-05T09:25:50.461Z,1052
2019-02-05T09:26:47.581Z,1104
2019-02-05T09:28:02.242Z,1300
2019-02-05T09:28:47.615Z,1368
2019-02-05T09:29:47.721Z,1280
2019-02-05T09:30:47.645Z,1160
2019-02-05T09:31:47.658Z,1060
2019-02-05T09:32:48.374Z,1056
2019-02-05T09:33:47.467Z,1252
2019-02-05T09:35:03.069Z,1716
2019-02-05T09:35:47.810Z,1992
2019-02-05T09:36:47.698Z,2052
2019-02-05T09:37:47.704Z,1832
2019-02-05T09:38:47.722Z,1972
2019-02-05T09:39:47.937Z,2184
2019-02-05T09:40:48.072Z,2668
2019-02-05T09:41:47.777Z,3544
2019-02-05T09:42:47.895Z,3552
2019-02-05T09:43:47.886Z,2976
2019-02-05T09:44:47.793Z,2504
2019-02-05T09:45:47.824Z,2460
2019-02-05T09:46:47.826Z,2636
2019-02-05T09:47:48.536Z,2884
2019-02-05T09:49:47.882Z,2472
2019-02-05T09:51:02.542Z,2312
2019-02-05T09:51:47.739Z,2488
2019-02-05T09:53:02.552Z,2816
2019-02-05T09:54:02.569Z,2624
2019-02-05T09:54:48.466Z,2332
2019-02-05T09:55:47.961Z,2072
2019-02-05T09:57:02.634Z,2164
2019-02-05T09:57:47.985Z,2188
2019-02-05T09:58:48.005Z,2064
2019-02-05T09:59:52.574Z,2068
2019-02-05T10:00:48.038Z,2036
2019-02-05T10:01:48.303Z,1856
2019-02-05T10:02:48.534Z,1860
2019-02-05T10:03:48.077Z,2068
2019-02-05T10:05:48.106Z,2208
2019-02-05T10:07:02.849Z,1908
2019-02-05T10:07:48.138Z,1748
2019-02-05T10:08:48.142Z,1696
2019-02-05T10:09:49.010Z,1744
2019-02-05T10:10:48.168Z,1772
2019-02-05T10:12:03.229Z,1744
2019-02-05T10:12:49.506Z,1696
2019-02-05T10:13:48.232Z,1696
2019-02-05T10:14:48.228Z,1792
2019-02-05T10:15:48.258Z,1988
2019-02-05T10:16:48.799Z,1940
2019-02-05T10:17:48.247Z,1812
2019-02-05T10:18:50.948Z,1704
2019-02-05T10:19:48.274Z,1652
2019-02-05T10:20:48.300Z,1632
2019-02-05T10:22:48.309Z,1584
2019-02-05T10:23:48.472Z,1596
2019-02-05T10:24:49.900Z,1752
2019-02-05T10:25:48.370Z,1888
2019-02-05T10:26:48.400Z,1820
2019-02-05T10:27:48.411Z,1704
2019-02-05T10:28:48.392Z,1648
2019-02-05T10:30:03.049Z,1680
2019-02-05T10:30:48.445Z,1732
2019-02-05T10:31:49.126Z,1784
2019-02-05T10:32:48.490Z,1756
2019-02-05T10:33:59.858Z,1684
2019-02-05T10:34:48.494Z,1720
2019-02-05T10:35:48.529Z,1708
2019-02-05T10:37:48.617Z,1604
2019-02-05T10:38:48.698Z,1608
2019-02-05T10:39:49.106Z,1668
2019-02-05T10:40:48.564Z,1740
2019-02-05T10:41:48.597Z,1856
2019-02-05T10:42:51.431Z,1920
2019-02-05T10:44:03.274Z,1880
2019-02-05T10:46:03.283Z,1780
2019-02-05T10:46:49.477Z,1828
2019-02-05T10:47:48.676Z,1828
2019-02-05T10:48:48.792Z,1796
2019-02-05T10:50:48.829Z,1772
2019-02-05T10:51:48.728Z,1852
2019-02-05T10:52:48.743Z,1840
2019-02-05T10:54:18.048Z,1852
2019-02-05T10:54:48.967Z,1896
2019-02-05T10:55:48.798Z,1896
2019-02-05T10:56:48.823Z,1860
2019-02-05T10:58:03.474Z,1908
2019-02-05T10:58:48.826Z,1940
2019-02-05T10:59:48.830Z,1876
2019-02-05T11:00:48.940Z,1836
2019-02-05T11:01:49.386Z,1952
2019-02-05T11:02:48.876Z,1944
2019-02-05T11:03:48.918Z,1944
2019-02-05T11:04:48.912Z,1948
2019-02-05T11:05:49.033Z,1904
2019-02-05T11:06:48.937Z,1880
2019-02-05T11:07:48.942Z,1908
2019-02-05T11:08:49.636Z,1916
2019-02-05T11:10:03.629Z,1836
2019-02-05T11:11:03.981Z,1764
2019-02-05T11:11:49.004Z,1716
2019-02-05T11:12:49.021Z,1736
2019-02-05T11:13:49.132Z,1760
2019-02-05T11:14:49.061Z,1852
2019-02-05T11:15:49.383Z,1812
2019-02-05T11:16:49.124Z,1780
2019-02-05T11:18:49.118Z,1840
2019-02-05T11:19:49.226Z,1900
2019-02-05T11:20:49.125Z,1964
2019-02-05T11:21:49.150Z,1992
2019-02-05T11:22:49.253Z,2016
2019-02-05T11:23:49.761Z,2112
2019-02-05T11:24:49.175Z,2260
2019-02-05T11:26:03.844Z,2200
2019-02-05T11:26:49.196Z,2152
2019-02-05T11:27:50.858Z,2140
2019-02-05T11:28:49.032Z,2128
2019-02-05T11:29:49.269Z,2124
2019-02-05T11:31:04.588Z,2096
2019-02-05T11:31:49.277Z,2088
2019-02-05T11:32:49.310Z,2120
2019-02-05T11:33:49.304Z,2196
2019-02-05T11:34:49.329Z,2232
2019-02-05T11:35:49.360Z,2264
2019-02-05T11:36:49.369Z,2188
2019-02-05T11:37:49.649Z,2240
2019-02-05T11:39:49.418Z,2228
2019-02-05T11:40:49.424Z,2272
2019-02-05T11:42:04.062Z,2348
2019-02-05T11:42:49.452Z,2432
2019-02-05T11:44:04.099Z,2428
2019-02-05T11:44:49.448Z,2444
2019-02-05T11:45:50.117Z,2460
2019-02-05T11:46:49.494Z,2380
2019-02-05T11:48:04.154Z,2280
2019-02-05T11:48:49.525Z,2292
2019-02-05T11:49:49.556Z,2352
2019-02-05T11:50:49.550Z,2436
2019-02-05T11:51:49.571Z,2332
2019-02-05T11:52:50.236Z,2464
2019-02-05T11:53:49.617Z,2452
2019-02-05T11:54:49.597Z,2504
2019-02-05T11:55:49.626Z,2568
2019-02-05T11:57:04.393Z,2608
2019-02-05T11:57:49.656Z,2392
2019-02-05T11:58:49.664Z,2492
2019-02-05T11:59:50.042Z,2540
2019-02-05T12:00:50.126Z,2572
2019-02-05T12:01:49.732Z,2440
2019-02-05T12:02:51.645Z,2328
2019-02-05T12:03:49.736Z,2288
2019-02-05T12:04:49.774Z,2212
2019-02-05T12:05:49.757Z,2316
2019-02-05T12:06:49.787Z,2520
2019-02-05T12:07:50.671Z,2560
2019-02-05T12:10:04.461Z,2676
2019-02-05T12:10:49.819Z,2576
2019-02-05T12:12:04.507Z,2516
2019-02-05T12:12:49.886Z,2508
2019-02-05T12:13:49.886Z,2428
2019-02-05T12:14:52.917Z,2224
2019-02-05T12:15:49.922Z,2208
2019-02-05T12:16:50.024Z,2300
2019-02-05T12:17:49.932Z,2464
2019-02-05T12:18:49.956Z,2480
2019-02-05T12:19:50.101Z,2480
2019-02-05T12:20:49.967Z,2564
2019-02-05T12:22:04.973Z,2720
2019-02-05T12:22:49.998Z,2568
2019-02-05T12:23:50.079Z,2472
2019-02-05T12:24:50.020Z,2404
2019-02-05T12:27:04.802Z,2340
2019-02-05T12:27:50.104Z,2332
2019-02-05T12:29:19.375Z,2304
2019-02-05T12:29:50.340Z,2352
2019-02-05T12:30:52.577Z,2564
2019-02-05T12:32:50.150Z,2532
2019-02-05T12:33:50.149Z,2812
2019-02-05T12:34:50.168Z,2832
2019-02-05T12:35:50.178Z,2596
2019-02-05T12:36:50.854Z,2464
2019-02-05T12:37:50.209Z,2420
2019-02-05T12:38:50.213Z,2412
2019-02-05T12:39:50.372Z,2588
2019-02-05T12:40:50.264Z,2724
2019-02-05T12:41:50.271Z,2736
2019-02-05T12:42:50.282Z,2860
2019-02-05T12:43:50.395Z,2960
2019-02-05T12:45:05.058Z,3092
2019-02-05T12:45:50.342Z,3152
2019-02-05T12:46:50.321Z,2976
2019-02-05T12:47:50.370Z,2876
2019-02-05T12:48:50.387Z,2896
2019-02-05T12:49:50.382Z,2940
2019-02-05T12:50:50.509Z,3096
2019-02-05T12:52:05.423Z,3352
2019-02-05T12:52:50.420Z,3532
2019-02-05T12:53:50.496Z,3612
2019-02-05T12:54:50.458Z,3532
2019-02-05T12:55:50.468Z,3612
2019-02-05T12:56:50.595Z,3692
2019-02-05T12:57:50.485Z,3904
2019-02-05T12:59:05.185Z,3616
2019-02-05T12:59:51.115Z,3612
2019-02-05T13:01:06.004Z,3504
2019-02-05T13:01:50.540Z,3552
2019-02-05T13:02:50.557Z,3672
2019-02-05T13:03:50.575Z,3636
2019-02-05T13:04:50.582Z,3380
2019-02-05T13:05:50.712Z,3456
2019-02-05T13:06:50.850Z,3392
2019-02-05T13:07:50.862Z,3592
2019-02-05T13:08:50.649Z,3616
2019-02-05T13:09:50.655Z,3780
2019-02-05T13:10:50.444Z,3816
2019-02-05T13:11:50.688Z,3880
2019-02-05T13:12:50.460Z,4028
2019-02-05T13:13:50.710Z,3748
2019-02-05T13:14:51.255Z,3752
2019-02-05T13:16:05.404Z,3560
2019-02-05T13:17:05.982Z,3168
2019-02-05T13:17:50.780Z,3044
2019-02-05T13:18:51.954Z,2888
2019-02-05T13:19:50.860Z,3040
2019-02-05T13:21:50.905Z,3204
2019-02-05T13:22:51.801Z,3252
2019-02-05T13:24:05.578Z,3140
2019-02-05T13:24:50.880Z,3004
2019-02-05T13:25:50.903Z,2776
2019-02-05T13:26:50.913Z,2552
2019-02-05T13:27:51.063Z,2708
2019-02-05T13:28:50.941Z,2612
2019-02-05T13:29:50.963Z,2360
2019-02-05T13:32:20.302Z,1836
2019-02-05T13:32:51.009Z,1716
2019-02-05T13:33:51.116Z,1612
2019-02-05T13:34:51.031Z,1492
2019-02-05T13:35:51.086Z,1496
2019-02-05T13:36:51.064Z,1384
2019-02-05T13:37:51.084Z,1380
2019-02-05T13:39:06.090Z,1144
2019-02-05T13:39:51.107Z,1080
2019-02-05T13:40:51.210Z,1020
2019-02-05T13:41:51.147Z,988
2019-02-05T13:42:51.162Z,992
2019-02-05T13:44:05.825Z,920
2019-02-05T13:44:51.188Z,904
2019-02-05T13:45:51.475Z,876
2019-02-05T13:46:51.579Z,908
2019-02-05T13:47:51.240Z,956
2019-02-05T13:48:51.247Z,976
2019-02-05T13:49:51.256Z,1008
2019-02-05T13:50:51.278Z,972
2019-02-05T13:51:51.295Z,900
2019-02-05T13:52:51.309Z,824
2019-02-05T13:53:51.740Z,796
2019-02-05T13:54:51.344Z,820
2019-02-05T13:55:51.345Z,808
2019-02-05T13:56:51.351Z,828
2019-02-05T13:57:51.378Z,872
2019-02-05T13:58:51.399Z,848
2019-02-05T13:59:51.416Z,836
2019-02-05T14:00:51.422Z,840
2019-02-05T14:02:06.865Z,928
2019-02-05T14:02:51.462Z,1024
2019-02-05T14:04:06.449Z,1076
2019-02-05T14:04:51.473Z,1144
2019-02-05T14:05:51.634Z,1052
2019-02-05T14:06:53.062Z,960
2019-02-05T14:07:51.521Z,976
2019-02-05T14:09:13.263Z,1016
2019-02-05T14:09:51.833Z,1060
2019-02-05T14:10:51.597Z,1100
2019-02-05T14:11:51.595Z,1068
2019-02-05T14:12:51.588Z,1080
2019-02-05T14:13:51.618Z,1112
2019-02-05T14:14:51.625Z,1060
2019-02-05T14:16:52.247Z,1068
2019-02-05T14:17:51.685Z,1000
2019-02-05T14:19:02.295Z,1060
2019-02-05T14:20:06.368Z,992
2019-02-05T14:20:51.458Z,920
2019-02-05T14:21:51.817Z,960
2019-02-05T14:22:51.840Z,1128
2019-02-05T14:23:51.747Z,1028
2019-02-05T14:24:52.110Z,932
2019-02-05T14:25:51.902Z,908
2019-02-05T14:26:51.790Z,908
2019-02-05T14:27:51.803Z,832
2019-02-05T14:28:51.833Z,792
2019-02-05T14:29:51.841Z,864
2019-02-05T14:30:51.610Z,880
2019-02-05T14:31:52.153Z,872
2019-02-05T14:32:52.250Z,932
2019-02-05T14:33:51.896Z,1008
2019-02-05T14:34:51.911Z,1048
2019-02-05T14:36:52.044Z,956
2019-02-05T14:37:51.952Z,888
2019-02-05T14:38:51.970Z,964
2019-02-05T14:40:06.976Z,964
2019-02-05T14:40:51.995Z,908
2019-02-05T14:41:52.016Z,840
2019-02-05T14:42:52.027Z,724
2019-02-05T14:43:52.137Z,700
2019-02-05T14:44:52.053Z,692